sensor_id;sensor_type;location;lat;lon;timestamp;P1;durP1;ratioP1;P2;durP2;ratioP2
6485;SDS011;3276;48.490;9.222;2023-11-22T00:01:05;14.53;;;9.00;;
6485;SDS011;3276;48.490;9.222;2023-11-22T00:03:31;15.20;;;9.37;;
6485;SDS011;3276;48.490;9.222;2023-11-22T00:05:57;12.37;;;8.50;;
6485;SDS011;3276;48.490;9.222;2023-11-22T00:08:23;14.87;;;7.97;;
6485;SDS011;3276;48.490;9.222;2023-11-22T00:10:49;14.00;;;8.63;;
6485;SDS011;3276;48.490;9.222;2023-11-22T00:13:14;17.27;;;9.37;;
6485;SDS011;3276;48.490;9.222;2023-11-22T00:15:40;20.63;;;9.30;;
6485;SDS011;3276;48.490;9.222;2023-11-22T00:18:06;10.67;;;8.43;;
6485;SDS011;3276;48.490;9.222;2023-11-22T00:20:32;14.87;;;9.50;;
6485;SDS011;3276;48.490;9.222;2023-11-22T00:22:58;13.27;;;10.00;;
6485;SDS011;3276;48.490;9.222;2023-11-22T00:25:24;13.27;;;9.10;;
6485;SDS011;3276;48.490;9.222;2023-11-22T00:27:50;17.63;;;10.73;;
6485;SDS011;3276;48.490;9.222;2023-11-22T00:30:15;12.07;;;9.07;;
6485;SDS011;3276;48.490;9.222;2023-11-22T00:32:41;18.43;;;9.70;;
6485;SDS011;3276;48.490;9.222;2023-11-22T00:35:07;13.80;;;9.53;;
6485;SDS011;3276;48.490;9.222;2023-11-22T00:37:33;12.43;;;8.90;;
6485;SDS011;3276;48.490;9.222;2023-11-22T00:40:02;12.03;;;9.20;;
6485;SDS011;3276;48.490;9.222;2023-11-22T00:42:35;16.33;;;8.87;;
6485;SDS011;3276;48.490;9.222;2023-11-22T00:45:05;15.20;;;8.87;;
6485;SDS011;3276;48.490;9.222;2023-11-22T00:47:34;15.90;;;10.00;;
6485;SDS011;3276;48.490;9.222;2023-11-22T00:50:00;11.63;;;9.10;;
6485;SDS011;3276;48.490;9.222;2023-11-22T00:52:26;12.20;;;8.57;;
6485;SDS011;3276;48.490;9.222;2023-11-22T00:54:52;13.17;;;8.80;;
6485;SDS011;3276;48.490;9.222;2023-11-22T00:57:18;13.63;;;9.07;;
6485;SDS011;3276;48.490;9.222;2023-11-22T00:59:44;11.40;;;8.73;;
6485;SDS011;3276;48.490;9.222;2023-11-22T01:02:09;8.90;;;7.37;;
6485;SDS011;3276;48.490;9.222;2023-11-22T01:04:35;15.10;;;8.97;;
6485;SDS011;3276;48.490;9.222;2023-11-22T01:07:02;15.23;;;9.37;;
6485;SDS011;3276;48.490;9.222;2023-11-22T01:09:31;17.43;;;9.87;;
6485;SDS011;3276;48.490;9.222;2023-11-22T01:11:58;12.23;;;9.00;;
6485;SDS011;3276;48.490;9.222;2023-11-22T01:14:24;12.97;;;8.73;;
6485;SDS011;3276;48.490;9.222;2023-11-22T01:16:51;16.53;;;9.10;;
6485;SDS011;3276;48.490;9.222;2023-11-22T01:19:16;14.47;;;10.43;;
6485;SDS011;3276;48.490;9.222;2023-11-22T01:21:42;13.87;;;9.40;;
6485;SDS011;3276;48.490;9.222;2023-11-22T01:24:08;12.30;;;8.90;;
6485;SDS011;3276;48.490;9.222;2023-11-22T01:26:33;18.13;;;9.60;;
6485;SDS011;3276;48.490;9.222;2023-11-22T01:28:59;7.37;;;6.00;;
6485;SDS011;3276;48.490;9.222;2023-11-22T01:31:25;4.40;;;2.57;;
6485;SDS011;3276;48.490;9.222;2023-11-22T01:33:52;4.13;;;3.10;;
6485;SDS011;3276;48.490;9.222;2023-11-22T01:36:18;4.73;;;2.77;;
6485;SDS011;3276;48.490;9.222;2023-11-22T01:38:44;5.90;;;3.47;;
6485;SDS011;3276;48.490;9.222;2023-11-22T01:41:11;3.43;;;2.80;;
6485;SDS011;3276;48.490;9.222;2023-11-22T01:43:40;4.20;;;3.53;;
6485;SDS011;3276;48.490;9.222;2023-11-22T01:46:09;5.07;;;3.67;;
6485;SDS011;3276;48.490;9.222;2023-11-22T01:48:36;4.63;;;3.50;;
6485;SDS011;3276;48.490;9.222;2023-11-22T01:51:02;7.33;;;5.10;;
6485;SDS011;3276;48.490;9.222;2023-11-22T01:53:29;6.10;;;4.70;;
6485;SDS011;3276;48.490;9.222;2023-11-22T01:55:56;6.90;;;4.80;;
6485;SDS011;3276;48.490;9.222;2023-11-22T01:58:22;6.80;;;5.00;;
6485;SDS011;3276;48.490;9.222;2023-11-22T02:00:49;6.53;;;5.27;;
6485;SDS011;3276;48.490;9.222;2023-11-22T02:03:15;6.37;;;5.00;;
6485;SDS011;3276;48.490;9.222;2023-11-22T02:05:41;7.30;;;5.00;;
6485;SDS011;3276;48.490;9.222;2023-11-22T02:08:11;7.97;;;6.37;;
6485;SDS011;3276;48.490;9.222;2023-11-22T02:10:37;7.30;;;5.80;;
6485;SDS011;3276;48.490;9.222;2023-11-22T02:13:03;7.40;;;5.67;;
6485;SDS011;3276;48.490;9.222;2023-11-22T02:15:32;6.40;;;5.50;;
6485;SDS011;3276;48.490;9.222;2023-11-22T02:17:59;9.47;;;5.87;;
6485;SDS011;3276;48.490;9.222;2023-11-22T02:20:24;8.70;;;6.47;;
6485;SDS011;3276;48.490;9.222;2023-11-22T02:22:50;7.57;;;5.87;;
6485;SDS011;3276;48.490;9.222;2023-11-22T02:25:16;9.00;;;6.83;;
6485;SDS011;3276;48.490;9.222;2023-11-22T02:27:41;8.37;;;7.07;;
6485;SDS011;3276;48.490;9.222;2023-11-22T02:30:07;7.17;;;5.37;;
6485;SDS011;3276;48.490;9.222;2023-11-22T02:32:34;8.00;;;5.50;;
6485;SDS011;3276;48.490;9.222;2023-11-22T02:34:59;7.17;;;5.63;;
6485;SDS011;3276;48.490;9.222;2023-11-22T02:37:25;7.40;;;5.50;;
6485;SDS011;3276;48.490;9.222;2023-11-22T02:42:48;9.07;;;7.67;;
6485;SDS011;3276;48.490;9.222;2023-11-22T02:45:19;7.80;;;6.53;;
6485;SDS011;3276;48.490;9.222;2023-11-22T02:47:48;9.43;;;6.20;;
6485;SDS011;3276;48.490;9.222;2023-11-22T02:50:14;9.40;;;7.10;;
6485;SDS011;3276;48.490;9.222;2023-11-22T02:52:41;8.40;;;6.50;;
6485;SDS011;3276;48.490;9.222;2023-11-22T02:55:07;7.83;;;5.90;;
6485;SDS011;3276;48.490;9.222;2023-11-22T02:57:39;7.93;;;5.47;;
6485;SDS011;3276;48.490;9.222;2023-11-22T03:00:05;8.10;;;5.60;;
6485;SDS011;3276;48.490;9.222;2023-11-22T03:02:33;9.10;;;6.23;;
6485;SDS011;3276;48.490;9.222;2023-11-22T03:04:59;7.23;;;6.53;;
6485;SDS011;3276;48.490;9.222;2023-11-22T03:07:25;8.17;;;5.87;;
6485;SDS011;3276;48.490;9.222;2023-11-22T03:09:51;8.87;;;5.83;;
6485;SDS011;3276;48.490;9.222;2023-11-22T03:12:18;8.30;;;4.93;;
6485;SDS011;3276;48.490;9.222;2023-11-22T03:14:45;9.70;;;6.27;;
6485;SDS011;3276;48.490;9.222;2023-11-22T03:17:11;17.07;;;7.40;;
6485;SDS011;3276;48.490;9.222;2023-11-22T03:19:38;8.30;;;6.60;;
6485;SDS011;3276;48.490;9.222;2023-11-22T03:22:04;8.40;;;6.27;;
6485;SDS011;3276;48.490;9.222;2023-11-22T03:24:31;24.53;;;6.73;;
6485;SDS011;3276;48.490;9.222;2023-11-22T03:27:00;6.70;;;4.97;;
6485;SDS011;3276;48.490;9.222;2023-11-22T03:29:26;10.27;;;6.90;;
6485;SDS011;3276;48.490;9.222;2023-11-22T03:31:52;7.37;;;5.40;;
6485;SDS011;3276;48.490;9.222;2023-11-22T03:34:18;7.10;;;4.60;;
6485;SDS011;3276;48.490;9.222;2023-11-22T03:36:44;6.88;;;5.20;;
6485;SDS011;3276;48.490;9.222;2023-11-22T03:39:10;7.03;;;4.80;;
6485;SDS011;3276;48.490;9.222;2023-11-22T03:41:36;10.00;;;6.13;;
6485;SDS011;3276;48.490;9.222;2023-11-22T03:44:02;7.47;;;5.83;;
6485;SDS011;3276;48.490;9.222;2023-11-22T03:46:29;9.77;;;6.17;;
6485;SDS011;3276;48.490;9.222;2023-11-22T03:48:55;9.43;;;5.90;;
6485;SDS011;3276;48.490;9.222;2023-11-22T03:51:20;5.77;;;4.60;;
6485;SDS011;3276;48.490;9.222;2023-11-22T03:53:46;10.00;;;5.27;;
6485;SDS011;3276;48.490;9.222;2023-11-22T03:56:11;11.10;;;6.47;;
6485;SDS011;3276;48.490;9.222;2023-11-22T03:58:37;7.27;;;4.90;;
6485;SDS011;3276;48.490;9.222;2023-11-22T04:01:03;7.47;;;5.17;;
6485;SDS011;3276;48.490;9.222;2023-11-22T04:03:29;8.50;;;5.33;;
6485;SDS011;3276;48.490;9.222;2023-11-22T04:05:54;8.90;;;6.07;;
6485;SDS011;3276;48.490;9.222;2023-11-22T04:08:20;6.80;;;5.10;;
6485;SDS011;3276;48.490;9.222;2023-11-22T04:10:45;6.83;;;6.13;;
6485;SDS011;3276;48.490;9.222;2023-11-22T04:13:12;9.82;;;4.95;;
6485;SDS011;3276;48.490;9.222;2023-11-22T04:15:37;6.57;;;4.70;;
6485;SDS011;3276;48.490;9.222;2023-11-22T04:18:03;9.63;;;5.83;;
6485;SDS011;3276;48.490;9.222;2023-11-22T04:20:29;8.27;;;5.20;;
6485;SDS011;3276;48.490;9.222;2023-11-22T04:22:54;8.00;;;5.70;;
6485;SDS011;3276;48.490;9.222;2023-11-22T04:25:20;8.10;;;5.33;;
6485;SDS011;3276;48.490;9.222;2023-11-22T04:27:45;10.23;;;5.60;;
6485;SDS011;3276;48.490;9.222;2023-11-22T04:30:11;8.90;;;5.07;;
6485;SDS011;3276;48.490;9.222;2023-11-22T04:32:39;7.95;;;5.63;;
6485;SDS011;3276;48.490;9.222;2023-11-22T04:35:05;7.60;;;5.10;;
6485;SDS011;3276;48.490;9.222;2023-11-22T04:37:31;6.88;;;4.68;;
6485;SDS011;3276;48.490;9.222;2023-11-22T04:39:57;6.83;;;4.70;;
6485;SDS011;3276;48.490;9.222;2023-11-22T04:42:23;9.05;;;5.80;;
6485;SDS011;3276;48.490;9.222;2023-11-22T04:44:49;11.30;;;5.70;;
6485;SDS011;3276;48.490;9.222;2023-11-22T04:47:14;9.40;;;6.23;;
6485;SDS011;3276;48.490;9.222;2023-11-22T04:49:40;9.00;;;6.20;;
6485;SDS011;3276;48.490;9.222;2023-11-22T04:52:05;6.03;;;4.37;;
6485;SDS011;3276;48.490;9.222;2023-11-22T04:54:31;9.70;;;5.80;;
6485;SDS011;3276;48.490;9.222;2023-11-22T04:56:57;8.20;;;6.32;;
6485;SDS011;3276;48.490;9.222;2023-11-22T04:59:23;7.50;;;6.40;;
6485;SDS011;3276;48.490;9.222;2023-11-22T05:01:49;7.50;;;5.43;;
6485;SDS011;3276;48.490;9.222;2023-11-22T05:04:14;6.43;;;5.03;;
6485;SDS011;3276;48.490;9.222;2023-11-22T05:06:40;9.03;;;6.83;;
6485;SDS011;3276;48.490;9.222;2023-11-22T05:09:06;12.10;;;6.83;;
6485;SDS011;3276;48.490;9.222;2023-11-22T05:11:31;10.70;;;6.33;;
6485;SDS011;3276;48.490;9.222;2023-11-22T05:13:57;8.77;;;5.97;;
6485;SDS011;3276;48.490;9.222;2023-11-22T05:16:23;10.20;;;7.30;;
6485;SDS011;3276;48.490;9.222;2023-11-22T05:18:49;8.27;;;6.43;;
6485;SDS011;3276;48.490;9.222;2023-11-22T05:21:15;10.18;;;5.85;;
6485;SDS011;3276;48.490;9.222;2023-11-22T05:23:40;10.57;;;7.77;;
6485;SDS011;3276;48.490;9.222;2023-11-22T05:26:06;9.53;;;6.17;;
6485;SDS011;3276;48.490;9.222;2023-11-22T05:28:32;8.47;;;5.93;;
6485;SDS011;3276;48.490;9.222;2023-11-22T05:30:58;9.38;;;6.35;;
6485;SDS011;3276;48.490;9.222;2023-11-22T05:33:24;8.77;;;6.77;;
6485;SDS011;3276;48.490;9.222;2023-11-22T05:35:49;10.60;;;6.77;;
6485;SDS011;3276;48.490;9.222;2023-11-22T05:38:15;7.40;;;5.87;;
6485;SDS011;3276;48.490;9.222;2023-11-22T05:40:41;10.83;;;5.37;;
6485;SDS011;3276;48.490;9.222;2023-11-22T05:43:08;7.97;;;5.93;;
6485;SDS011;3276;48.490;9.222;2023-11-22T05:45:34;6.65;;;5.65;;
6485;SDS011;3276;48.490;9.222;2023-11-22T05:48:00;7.57;;;4.93;;
6485;SDS011;3276;48.490;9.222;2023-11-22T05:50:26;12.00;;;6.00;;
6485;SDS011;3276;48.490;9.222;2023-11-22T05:52:51;7.83;;;5.33;;
6485;SDS011;3276;48.490;9.222;2023-11-22T05:55:17;8.33;;;5.43;;
6485;SDS011;3276;48.490;9.222;2023-11-22T05:57:43;7.13;;;5.30;;
6485;SDS011;3276;48.490;9.222;2023-11-22T06:00:09;8.03;;;5.20;;
6485;SDS011;3276;48.490;9.222;2023-11-22T06:02:35;5.95;;;3.97;;
6485;SDS011;3276;48.490;9.222;2023-11-22T06:05:04;7.47;;;5.65;;
6485;SDS011;3276;48.490;9.222;2023-11-22T06:07:30;9.60;;;4.75;;
6485;SDS011;3276;48.490;9.222;2023-11-22T06:09:56;6.10;;;4.80;;
6485;SDS011;3276;48.490;9.222;2023-11-22T06:12:22;7.70;;;4.70;;
6485;SDS011;3276;48.490;9.222;2023-11-22T06:14:48;5.60;;;3.93;;
6485;SDS011;3276;48.490;9.222;2023-11-22T06:17:13;5.87;;;3.80;;
6485;SDS011;3276;48.490;9.222;2023-11-22T06:19:39;8.87;;;4.50;;
6485;SDS011;3276;48.490;9.222;2023-11-22T06:22:06;7.00;;;4.25;;
6485;SDS011;3276;48.490;9.222;2023-11-22T06:24:32;6.85;;;4.20;;
6485;SDS011;3276;48.490;9.222;2023-11-22T06:26:58;7.13;;;4.05;;
6485;SDS011;3276;48.490;9.222;2023-11-22T06:29:24;5.30;;;3.50;;
6485;SDS011;3276;48.490;9.222;2023-11-22T06:31:49;5.93;;;3.60;;
6485;SDS011;3276;48.490;9.222;2023-11-22T06:34:15;6.83;;;4.60;;
6485;SDS011;3276;48.490;9.222;2023-11-22T06:36:40;6.33;;;4.03;;
6485;SDS011;3276;48.490;9.222;2023-11-22T06:39:06;7.20;;;5.20;;
6485;SDS011;3276;48.490;9.222;2023-11-22T06:41:34;6.60;;;4.80;;
6485;SDS011;3276;48.490;9.222;2023-11-22T06:43:59;8.87;;;5.00;;
6485;SDS011;3276;48.490;9.222;2023-11-22T06:46:25;7.80;;;4.40;;
6485;SDS011;3276;48.490;9.222;2023-11-22T06:48:51;6.30;;;4.10;;
6485;SDS011;3276;48.490;9.222;2023-11-22T06:51:16;7.60;;;4.53;;
6485;SDS011;3276;48.490;9.222;2023-11-22T06:53:43;7.18;;;4.72;;
6485;SDS011;3276;48.490;9.222;2023-11-22T06:56:10;7.38;;;4.60;;
6485;SDS011;3276;48.490;9.222;2023-11-22T06:58:36;7.10;;;4.10;;
6485;SDS011;3276;48.490;9.222;2023-11-22T07:01:01;6.23;;;4.37;;
6485;SDS011;3276;48.490;9.222;2023-11-22T07:03:27;6.70;;;4.80;;
6485;SDS011;3276;48.490;9.222;2023-11-22T07:05:52;6.70;;;4.67;;
6485;SDS011;3276;48.490;9.222;2023-11-22T07:08:18;6.30;;;3.80;;
6485;SDS011;3276;48.490;9.222;2023-11-22T07:10:44;6.70;;;4.53;;
6485;SDS011;3276;48.490;9.222;2023-11-22T07:13:11;5.57;;;3.70;;
6485;SDS011;3276;48.490;9.222;2023-11-22T07:15:37;7.10;;;4.82;;
6485;SDS011;3276;48.490;9.222;2023-11-22T07:18:03;5.63;;;3.80;;
6485;SDS011;3276;48.490;9.222;2023-11-22T07:20:30;6.85;;;4.10;;
6485;SDS011;3276;48.490;9.222;2023-11-22T07:22:56;6.80;;;3.57;;
6485;SDS011;3276;48.490;9.222;2023-11-22T07:25:22;6.50;;;4.20;;
6485;SDS011;3276;48.490;9.222;2023-11-22T07:27:50;8.18;;;4.53;;
6485;SDS011;3276;48.490;9.222;2023-11-22T07:30:16;5.85;;;3.88;;
6485;SDS011;3276;48.490;9.222;2023-11-22T07:32:44;5.10;;;3.97;;
6485;SDS011;3276;48.490;9.222;2023-11-22T07:35:10;6.43;;;4.43;;
6485;SDS011;3276;48.490;9.222;2023-11-22T07:37:36;7.47;;;3.80;;
6485;SDS011;3276;48.490;9.222;2023-11-22T07:40:07;7.60;;;4.65;;
6485;SDS011;3276;48.490;9.222;2023-11-22T07:42:34;8.38;;;5.18;;
6485;SDS011;3276;48.490;9.222;2023-11-22T07:45:03;8.85;;;4.60;;
6485;SDS011;3276;48.490;9.222;2023-11-22T07:47:29;6.60;;;4.28;;
6485;SDS011;3276;48.490;9.222;2023-11-22T07:49:55;8.03;;;4.60;;
6485;SDS011;3276;48.490;9.222;2023-11-22T07:52:21;5.70;;;3.73;;
6485;SDS011;3276;48.490;9.222;2023-11-22T07:54:47;7.72;;;5.05;;
6485;SDS011;3276;48.490;9.222;2023-11-22T07:57:13;5.77;;;3.93;;
6485;SDS011;3276;48.490;9.222;2023-11-22T07:59:39;6.90;;;5.20;;
6485;SDS011;3276;48.490;9.222;2023-11-22T08:02:05;5.73;;;4.27;;
6485;SDS011;3276;48.490;9.222;2023-11-22T08:04:36;7.15;;;4.32;;
6485;SDS011;3276;48.490;9.222;2023-11-22T08:07:02;5.95;;;4.00;;
6485;SDS011;3276;48.490;9.222;2023-11-22T08:09:28;6.22;;;5.22;;
6485;SDS011;3276;48.490;9.222;2023-11-22T08:11:57;5.95;;;4.30;;
6485;SDS011;3276;48.490;9.222;2023-11-22T08:14:28;5.88;;;4.05;;
6485;SDS011;3276;48.490;9.222;2023-11-22T08:16:54;6.10;;;3.70;;
6485;SDS011;3276;48.490;9.222;2023-11-22T08:19:19;7.28;;;4.60;;
6485;SDS011;3276;48.490;9.222;2023-11-22T08:21:48;6.22;;;4.22;;
6485;SDS011;3276;48.490;9.222;2023-11-22T08:24:14;5.90;;;5.17;;
6485;SDS011;3276;48.490;9.222;2023-11-22T08:26:39;5.37;;;4.23;;
6485;SDS011;3276;48.490;9.222;2023-11-22T08:29:05;6.27;;;4.53;;
6485;SDS011;3276;48.490;9.222;2023-11-22T08:31:32;8.30;;;4.82;;
6485;SDS011;3276;48.490;9.222;2023-11-22T08:33:59;5.07;;;3.20;;
6485;SDS011;3276;48.490;9.222;2023-11-22T08:36:25;6.77;;;4.83;;
6485;SDS011;3276;48.490;9.222;2023-11-22T08:38:53;6.40;;;4.57;;
6485;SDS011;3276;48.490;9.222;2023-11-22T08:41:20;6.47;;;4.80;;
6485;SDS011;3276;48.490;9.222;2023-11-22T08:43:46;9.82;;;6.22;;
6485;SDS011;3276;48.490;9.222;2023-11-22T08:46:13;7.30;;;4.60;;
6485;SDS011;3276;48.490;9.222;2023-11-22T08:48:39;6.63;;;4.72;;
6485;SDS011;3276;48.490;9.222;2023-11-22T08:51:06;5.95;;;4.75;;
6485;SDS011;3276;48.490;9.222;2023-11-22T08:53:32;6.30;;;4.70;;
6485;SDS011;3276;48.490;9.222;2023-11-22T08:55:58;7.20;;;4.20;;
6485;SDS011;3276;48.490;9.222;2023-11-22T08:58:24;5.83;;;3.93;;
6485;SDS011;3276;48.490;9.222;2023-11-22T09:00:49;7.03;;;4.93;;
6485;SDS011;3276;48.490;9.222;2023-11-22T09:03:15;4.90;;;3.57;;
6485;SDS011;3276;48.490;9.222;2023-11-22T09:05:45;6.93;;;3.67;;
6485;SDS011;3276;48.490;9.222;2023-11-22T09:08:11;6.60;;;4.43;;
6485;SDS011;3276;48.490;9.222;2023-11-22T09:10:40;6.75;;;4.72;;
6485;SDS011;3276;48.490;9.222;2023-11-22T09:13:07;6.30;;;5.20;;
6485;SDS011;3276;48.490;9.222;2023-11-22T09:15:33;6.65;;;4.47;;
6485;SDS011;3276;48.490;9.222;2023-11-22T09:18:00;7.47;;;4.20;;
6485;SDS011;3276;48.490;9.222;2023-11-22T09:20:26;5.43;;;4.32;;
6485;SDS011;3276;48.490;9.222;2023-11-22T09:22:52;8.30;;;4.63;;
6485;SDS011;3276;48.490;9.222;2023-11-22T09:25:20;5.20;;;3.63;;
6485;SDS011;3276;48.490;9.222;2023-11-22T09:27:47;5.17;;;4.10;;
6485;SDS011;3276;48.490;9.222;2023-11-22T09:30:16;4.72;;;3.55;;
6485;SDS011;3276;48.490;9.222;2023-11-22T09:33:04;5.47;;;4.57;;
6485;SDS011;3276;48.490;9.222;2023-11-22T09:35:31;6.18;;;4.65;;
6485;SDS011;3276;48.490;9.222;2023-11-22T09:38:01;6.97;;;3.97;;
6485;SDS011;3276;48.490;9.222;2023-11-22T09:40:28;6.43;;;4.20;;
6485;SDS011;3276;48.490;9.222;2023-11-22T09:42:55;8.38;;;4.05;;
6485;SDS011;3276;48.490;9.222;2023-11-22T09:45:21;8.50;;;4.25;;
6485;SDS011;3276;48.490;9.222;2023-11-22T09:47:47;7.60;;;3.70;;
6485;SDS011;3276;48.490;9.222;2023-11-22T09:50:19;5.68;;;3.90;;
6485;SDS011;3276;48.490;9.222;2023-11-22T09:52:51;5.30;;;4.45;;
6485;SDS011;3276;48.490;9.222;2023-11-22T09:55:19;5.60;;;4.17;;
6485;SDS011;3276;48.490;9.222;2023-11-22T09:57:47;7.60;;;4.68;;
6485;SDS011;3276;48.490;9.222;2023-11-22T10:00:13;4.65;;;3.72;;
6485;SDS011;3276;48.490;9.222;2023-11-22T10:02:43;10.75;;;4.65;;
6485;SDS011;3276;48.490;9.222;2023-11-22T10:05:09;6.75;;;4.50;;
6485;SDS011;3276;48.490;9.222;2023-11-22T10:07:36;7.57;;;4.05;;
6485;SDS011;3276;48.490;9.222;2023-11-22T10:10:02;6.07;;;4.18;;
6485;SDS011;3276;48.490;9.222;2023-11-22T10:12:30;6.80;;;4.55;;
6485;SDS011;3276;48.490;9.222;2023-11-22T10:17:38;6.80;;;5.20;;
6485;SDS011;3276;48.490;9.222;2023-11-22T10:20:04;5.60;;;4.60;;
6485;SDS011;3276;48.490;9.222;2023-11-22T10:22:42;9.23;;;5.55;;
6485;SDS011;3276;48.490;9.222;2023-11-22T10:25:09;12.32;;;3.97;;
6485;SDS011;3276;48.490;9.222;2023-11-22T10:27:36;7.50;;;5.30;;
6485;SDS011;3276;48.490;9.222;2023-11-22T10:30:03;7.00;;;5.38;;
6485;SDS011;3276;48.490;9.222;2023-11-22T10:32:29;21.73;;;4.65;;
6485;SDS011;3276;48.490;9.222;2023-11-22T10:34:55;6.87;;;4.70;;
6485;SDS011;3276;48.490;9.222;2023-11-22T10:37:20;6.37;;;4.90;;
6485;SDS011;3276;48.490;9.222;2023-11-22T10:39:52;6.72;;;4.32;;
6485;SDS011;3276;48.490;9.222;2023-11-22T10:42:18;8.43;;;5.10;;
6485;SDS011;3276;48.490;9.222;2023-11-22T10:44:44;11.25;;;4.43;;
6485;SDS011;3276;48.490;9.222;2023-11-22T10:47:12;6.75;;;3.90;;
6485;SDS011;3276;48.490;9.222;2023-11-22T10:49:42;7.30;;;4.57;;
6485;SDS011;3276;48.490;9.222;2023-11-22T10:52:08;6.67;;;4.70;;
6485;SDS011;3276;48.490;9.222;2023-11-22T10:54:38;7.20;;;4.60;;
6485;SDS011;3276;48.490;9.222;2023-11-22T10:57:09;6.93;;;5.13;;
6485;SDS011;3276;48.490;9.222;2023-11-22T10:59:39;7.40;;;5.03;;
6485;SDS011;3276;48.490;9.222;2023-11-22T11:02:08;8.00;;;4.82;;
6485;SDS011;3276;48.490;9.222;2023-11-22T11:04:46;7.40;;;4.60;;
6485;SDS011;3276;48.490;9.222;2023-11-22T11:07:16;6.90;;;4.00;;
6485;SDS011;3276;48.490;9.222;2023-11-22T11:09:47;8.63;;;5.18;;
6485;SDS011;3276;48.490;9.222;2023-11-22T11:12:16;5.50;;;4.22;;
6485;SDS011;3276;48.490;9.222;2023-11-22T11:14:43;7.72;;;5.65;;
6485;SDS011;3276;48.490;9.222;2023-11-22T11:17:11;7.07;;;4.60;;
6485;SDS011;3276;48.490;9.222;2023-11-22T11:19:38;7.82;;;5.05;;
6485;SDS011;3276;48.490;9.222;2023-11-22T11:22:03;7.47;;;4.73;;
6485;SDS011;3276;48.490;9.222;2023-11-22T11:24:40;5.68;;;4.22;;
6485;SDS011;3276;48.490;9.222;2023-11-22T11:27:12;6.67;;;4.73;;
6485;SDS011;3276;48.490;9.222;2023-11-22T11:29:38;5.88;;;4.53;;
6485;SDS011;3276;48.490;9.222;2023-11-22T11:32:11;7.25;;;5.85;;
6485;SDS011;3276;48.490;9.222;2023-11-22T11:34:47;7.70;;;4.80;;
6485;SDS011;3276;48.490;9.222;2023-11-22T11:37:14;6.75;;;4.85;;
6485;SDS011;3276;48.490;9.222;2023-11-22T11:39:40;6.80;;;4.90;;
6485;SDS011;3276;48.490;9.222;2023-11-22T11:42:09;7.20;;;5.00;;
6485;SDS011;3276;48.490;9.222;2023-11-22T11:44:36;8.23;;;4.70;;
6485;SDS011;3276;48.490;9.222;2023-11-22T11:47:08;7.65;;;4.78;;
6485;SDS011;3276;48.490;9.222;2023-11-22T11:49:36;7.63;;;4.88;;
6485;SDS011;3276;48.490;9.222;2023-11-22T11:52:04;7.53;;;5.15;;
6485;SDS011;3276;48.490;9.222;2023-11-22T11:54:30;11.07;;;5.20;;
6485;SDS011;3276;48.490;9.222;2023-11-22T11:56:59;8.13;;;5.63;;
6485;SDS011;3276;48.490;9.222;2023-11-22T11:59:25;9.82;;;5.53;;
6485;SDS011;3276;48.490;9.222;2023-11-22T12:01:54;7.80;;;5.93;;
6485;SDS011;3276;48.490;9.222;2023-11-22T12:04:24;11.77;;;7.07;;
6485;SDS011;3276;48.490;9.222;2023-11-22T12:06:51;8.32;;;5.22;;
6485;SDS011;3276;48.490;9.222;2023-11-22T12:09:23;10.33;;;5.30;;
6485;SDS011;3276;48.490;9.222;2023-11-22T12:11:50;7.22;;;5.35;;
6485;SDS011;3276;48.490;9.222;2023-11-22T12:14:18;7.15;;;5.13;;
6485;SDS011;3276;48.490;9.222;2023-11-22T12:16:44;6.15;;;4.30;;
6485;SDS011;3276;48.490;9.222;2023-11-22T12:19:20;15.70;;;6.95;;
6485;SDS011;3276;48.490;9.222;2023-11-22T12:21:47;9.15;;;4.70;;
6485;SDS011;3276;48.490;9.222;2023-11-22T12:24:13;8.05;;;4.43;;
6485;SDS011;3276;48.490;9.222;2023-11-22T12:26:44;10.30;;;6.10;;
6485;SDS011;3276;48.490;9.222;2023-11-22T12:29:15;12.25;;;7.30;;
6485;SDS011;3276;48.490;9.222;2023-11-22T12:31:48;8.90;;;6.00;;
6485;SDS011;3276;48.490;9.222;2023-11-22T12:34:16;12.02;;;5.25;;
6485;SDS011;3276;48.490;9.222;2023-11-22T12:36:45;8.35;;;5.30;;
6485;SDS011;3276;48.490;9.222;2023-11-22T12:39:12;5.35;;;4.10;;
6485;SDS011;3276;48.490;9.222;2023-11-22T12:41:45;9.25;;;5.53;;
6485;SDS011;3276;48.490;9.222;2023-11-22T12:44:12;12.25;;;5.80;;
6485;SDS011;3276;48.490;9.222;2023-11-22T12:46:45;10.27;;;5.43;;
6485;SDS011;3276;48.490;9.222;2023-11-22T12:49:15;9.75;;;5.72;;
6485;SDS011;3276;48.490;9.222;2023-11-22T12:51:47;7.90;;;5.93;;
6485;SDS011;3276;48.490;9.222;2023-11-22T12:54:13;8.95;;;5.05;;
6485;SDS011;3276;48.490;9.222;2023-11-22T12:56:40;8.50;;;6.13;;
6485;SDS011;3276;48.490;9.222;2023-11-22T12:59:06;9.02;;;5.10;;
6485;SDS011;3276;48.490;9.222;2023-11-22T13:01:32;10.63;;;6.03;;
6485;SDS011;3276;48.490;9.222;2023-11-22T13:03:58;8.52;;;6.25;;
6485;SDS011;3276;48.490;9.222;2023-11-22T13:06:24;9.80;;;6.20;;
6485;SDS011;3276;48.490;9.222;2023-11-22T13:08:51;9.38;;;6.32;;
6485;SDS011;3276;48.490;9.222;2023-11-22T13:11:18;8.53;;;5.80;;
6485;SDS011;3276;48.490;9.222;2023-11-22T13:13:44;8.70;;;5.97;;
6485;SDS011;3276;48.490;9.222;2023-11-22T13:16:11;10.27;;;7.13;;
6485;SDS011;3276;48.490;9.222;2023-11-22T13:18:37;11.67;;;5.97;;
6485;SDS011;3276;48.490;9.222;2023-11-22T13:21:03;6.83;;;5.47;;
6485;SDS011;3276;48.490;9.222;2023-11-22T13:23:29;8.65;;;6.20;;
6485;SDS011;3276;48.490;9.222;2023-11-22T13:25:54;12.47;;;6.77;;
6485;SDS011;3276;48.490;9.222;2023-11-22T13:28:20;9.40;;;7.47;;
6485;SDS011;3276;48.490;9.222;2023-11-22T13:30:46;8.77;;;6.50;;
6485;SDS011;3276;48.490;9.222;2023-11-22T13:33:14;5.78;;;4.75;;
6485;SDS011;3276;48.490;9.222;2023-11-22T13:35:39;9.23;;;5.57;;
6485;SDS011;3276;48.490;9.222;2023-11-22T13:38:05;9.25;;;5.50;;
6485;SDS011;3276;48.490;9.222;2023-11-22T13:40:36;9.15;;;5.45;;
6485;SDS011;3276;48.490;9.222;2023-11-22T13:43:04;9.45;;;6.38;;
6485;SDS011;3276;48.490;9.222;2023-11-22T13:45:30;8.00;;;5.90;;
6485;SDS011;3276;48.490;9.222;2023-11-22T13:47:55;8.00;;;5.80;;
6485;SDS011;3276;48.490;9.222;2023-11-22T13:50:31;12.80;;;8.63;;
6485;SDS011;3276;48.490;9.222;2023-11-22T13:52:58;9.00;;;5.50;;
6485;SDS011;3276;48.490;9.222;2023-11-22T13:55:23;13.07;;;7.27;;
6485;SDS011;3276;48.490;9.222;2023-11-22T13:57:53;9.23;;;6.03;;
6485;SDS011;3276;48.490;9.222;2023-11-22T14:00:20;10.30;;;6.78;;
6485;SDS011;3276;48.490;9.222;2023-11-22T14:02:55;11.40;;;8.05;;
6485;SDS011;3276;48.490;9.222;2023-11-22T14:05:25;9.48;;;6.60;;
6485;SDS011;3276;48.490;9.222;2023-11-22T14:07:54;9.77;;;6.47;;
6485;SDS011;3276;48.490;9.222;2023-11-22T14:10:19;11.93;;;8.07;;
6485;SDS011;3276;48.490;9.222;2023-11-22T14:12:47;7.78;;;6.70;;
6485;SDS011;3276;48.490;9.222;2023-11-22T14:15:13;8.80;;;6.80;;
6485;SDS011;3276;48.490;9.222;2023-11-22T14:17:39;12.30;;;7.45;;
6485;SDS011;3276;48.490;9.222;2023-11-22T14:20:14;10.40;;;7.35;;
6485;SDS011;3276;48.490;9.222;2023-11-22T14:22:41;14.20;;;8.02;;
6485;SDS011;3276;48.490;9.222;2023-11-22T14:25:10;10.55;;;6.90;;
6485;SDS011;3276;48.490;9.222;2023-11-22T14:27:40;6.97;;;6.00;;
6485;SDS011;3276;48.490;9.222;2023-11-22T14:30:07;12.18;;;7.53;;
6485;SDS011;3276;48.490;9.222;2023-11-22T14:32:34;12.82;;;6.85;;
6485;SDS011;3276;48.490;9.222;2023-11-22T14:35:03;11.55;;;8.50;;
6485;SDS011;3276;48.490;9.222;2023-11-22T14:37:29;9.27;;;6.05;;
6485;SDS011;3276;48.490;9.222;2023-11-22T14:39:55;11.23;;;7.65;;
6485;SDS011;3276;48.490;9.222;2023-11-22T14:42:24;11.00;;;7.50;;
6485;SDS011;3276;48.490;9.222;2023-11-22T14:44:52;11.75;;;6.32;;
6485;SDS011;3276;48.490;9.222;2023-11-22T14:47:18;7.30;;;4.90;;
6485;SDS011;3276;48.490;9.222;2023-11-22T14:49:49;12.32;;;7.10;;
6485;SDS011;3276;48.490;9.222;2023-11-22T14:52:18;10.95;;;7.30;;
6485;SDS011;3276;48.490;9.222;2023-11-22T14:54:46;10.80;;;7.28;;
6485;SDS011;3276;48.490;9.222;2023-11-22T14:57:12;8.85;;;6.10;;
6485;SDS011;3276;48.490;9.222;2023-11-22T14:59:38;8.10;;;6.60;;
6485;SDS011;3276;48.490;9.222;2023-11-22T15:02:04;8.13;;;5.85;;
6485;SDS011;3276;48.490;9.222;2023-11-22T15:04:33;49.20;;;13.57;;
6485;SDS011;3276;48.490;9.222;2023-11-22T15:07:01;16.92;;;8.60;;
6485;SDS011;3276;48.490;9.222;2023-11-22T15:09:27;10.30;;;6.23;;
6485;SDS011;3276;48.490;9.222;2023-11-22T15:11:52;7.67;;;5.93;;
6485;SDS011;3276;48.490;9.222;2023-11-22T15:14:19;7.20;;;5.97;;
6485;SDS011;3276;48.490;9.222;2023-11-22T15:16:44;8.10;;;6.30;;